Time;durP1;ratioP1;P1;durP2;ratioP2;P2;SDS_P1;SDS_P2;PMS_P1;PMS_P2;Temp;Humidity;BMP_temperature;BMP_pressure;BME280_temperature;BME280_humidity;BME280_pressure;Samples;Min_cycle;Max_cycle;Signal;HPM_P1;HPM_P2
2023/11/12 00:01:50;;;;;;;14.10;12.70;;;;;;;6.95;100.00;97264.56;109646;1250;58991;-73
2023/11/12 00:04:18;;;;;;;12.90;11.70;;;;;;;6.96;100.00;97259.80;109626;1251;58985;-71
2023/11/12 00:06:44;;;;;;;13.40;11.90;;;;;;;7.00;100.00;97262.45;109644;1251;62304;-72
2023/11/12 00:09:11;;;;;;;12.30;11.10;;;;;;;7.03;100.00;97258.39;109625;1250;58934;-73
2023/11/12 00:11:40;;;;;;;11.70;10.60;;;;;;;7.05;100.00;97258.55;109657;1251;74612;-73
2023/11/12 00:14:07;;;;;;;12.50;11.30;;;;;;;7.08;100.00;97257.59;109620;1250;67625;-71
2023/11/12 00:16:34;;;;;;;11.00;10.10;;;;;;;7.08;100.00;97261.36;109664;1251;72411;-71
2023/11/12 00:19:04;;;;;;;10.70;9.80;;;;;;;7.08;100.00;97257.14;109628;1251;61805;-74
2023/11/12 00:21:30;;;;;;;9.80;9.00;;;;;;;7.08;100.00;97255.92;109658;1251;60061;-71
2023/11/12 00:23:57;;;;;;;10.00;9.10;;;;;;;7.10;100.00;97255.02;109642;1251;74593;-73
2023/11/12 00:26:24;;;;;;;10.70;9.60;;;;;;;7.12;100.00;97256.57;109649;1251;66756;-73
2023/11/12 00:28:51;;;;;;;11.00;9.90;;;;;;;7.14;100.00;97256.17;109553;1251;71693;-71
2023/11/12 00:31:17;;;;;;;11.00;10.00;;;;;;;7.14;100.00;97254.05;109606;1250;60189;-73
2023/11/12 00:33:44;;;;;;;10.00;9.00;;;;;;;7.13;100.00;97250.88;109685;1250;58942;-70
2023/11/12 00:36:13;;;;;;;10.60;9.60;;;;;;;7.11;100.00;97251.64;109686;1253;73234;-73
2023/11/12 00:38:39;;;;;;;9.70;8.60;;;;;;;7.10;100.00;97248.42;109693;1250;67743;-73
2023/11/12 00:41:08;;;;;;;10.30;9.30;;;;;;;7.09;100.00;97249.44;109598;1251;72535;-72
2023/11/12 00:43:34;;;;;;;9.60;8.70;;;;;;;7.07;100.00;97251.80;109576;1251;61802;-72
2023/11/12 00:46:01;;;;;;;9.00;8.10;;;;;;;7.06;100.00;97252.09;109664;1250;58971;-75
2023/11/12 00:48:28;;;;;;;8.70;8.00;;;;;;;7.04;100.00;97247.93;109637;1250;74811;-72
2023/11/12 00:50:54;;;;;;;8.60;7.90;;;;;;;7.04;100.00;97242.09;109671;1250;68224;-74
2023/11/12 00:53:22;;;;;;;8.70;8.00;;;;;;;7.02;100.00;97239.23;109638;1250;72643;-74
2023/11/12 00:55:49;;;;;;;8.00;7.30;;;;;;;7.02;100.00;97237.20;109553;1251;61981;-71
2023/11/12 00:58:15;;;;;;;9.00;8.20;;;;;;;7.02;100.00;97237.39;109568;1251;58920;-72
2023/11/12 01:00:42;;;;;;;8.50;7.80;;;;;;;7.02;100.00;97233.66;109632;1251;58961;-72
2023/11/12 01:03:12;;;;;;;8.70;7.90;;;;;;;7.02;100.00;97231.22;109642;1250;59074;-73
2023/11/12 01:05:39;;;;;;;8.90;8.20;;;;;;;7.01;100.00;97230.95;109550;1251;71387;-74
2023/11/12 01:08:06;;;;;;;8.50;7.80;;;;;;;6.99;100.00;97224.70;109619;1250;58943;-72
2023/11/12 01:10:33;;;;;;;8.20;7.50;;;;;;;6.98;100.00;97221.83;109632;1250;59081;-70
2023/11/12 01:12:59;;;;;;;7.80;7.10;;;;;;;6.98;100.00;97219.02;109750;1250;59634;-72
2023/11/12 01:15:29;;;;;;;8.30;7.60;;;;;;;6.99;100.00;97212.34;109675;1250;59019;-74
2023/11/12 01:17:57;;;;;;;7.20;6.60;;;;;;;6.98;100.00;97214.66;109532;1253;71194;-73
2023/11/12 01:20:23;;;;;;;7.80;7.10;;;;;;;6.96;100.00;97209.04;109582;1251;61827;-73
2023/11/12 01:22:50;;;;;;;8.10;7.40;;;;;;;6.98;100.00;97207.88;109618;1251;60184;-74
2023/11/12 01:25:16;;;;;;;8.20;7.50;;;;;;;6.99;100.00;97205.63;109675;1250;72704;-74
2023/11/12 01:27:43;;;;;;;8.40;7.60;;;;;;;7.00;100.00;97208.16;109661;1250;66304;-72
2023/11/12 01:30:10;;;;;;;9.20;8.40;;;;;;;7.02;100.00;97210.40;109706;1250;58996;-72
2023/11/12 01:32:36;;;;;;;9.10;8.30;;;;;;;7.04;100.00;97209.31;109524;1250;59048;-72
2023/11/12 01:35:03;;;;;;;11.30;10.20;;;;;;;7.03;100.00;97209.34;109642;1250;59277;-74
2023/11/12 01:37:30;;;;;;;10.40;9.50;;;;;;;7.02;100.00;97209.82;109627;1250;73835;-72
2023/11/12 01:39:56;;;;;;;10.30;9.30;;;;;;;7.01;100.00;97206.66;109612;1250;67939;-74
2023/11/12 01:42:25;;;;;;;11.80;10.70;;;;;;;7.01;100.00;97207.31;109578;1250;59039;-74
2023/11/12 01:44:51;;;;;;;10.10;9.10;;;;;;;7.02;100.00;97208.98;109559;1250;60521;-75
2023/11/12 01:47:18;;;;;;;11.50;10.40;;;;;;;7.02;100.00;97208.45;109629;1250;58832;-71
2023/11/12 01:49:45;;;;;;;10.60;9.70;;;;;;;7.02;100.00;97212.55;109612;1253;73255;-72
2023/11/12 01:52:11;;;;;;;11.00;10.00;;;;;;;7.03;100.00;97206.90;109501;1251;66777;-72
2023/11/12 01:54:38;;;;;;;10.40;9.30;;;;;;;7.06;100.00;97203.16;109625;1250;58973;-73
2023/11/12 01:57:05;;;;;;;10.30;9.40;;;;;;;7.08;100.00;97204.79;109422;1251;60405;-73
2023/11/12 01:59:34;;;;;;;9.90;9.00;;;;;;;7.09;100.00;97201.21;109469;1251;59109;-72
2023/11/12 02:02:00;;;;;;;9.50;8.50;;;;;;;7.09;100.00;97200.80;109525;1251;74472;-72
2023/11/12 02:04:27;;;;;;;11.10;9.10;;;;;;;7.09;100.00;97200.06;109556;1251;66849;-74
2023/11/12 02:06:54;;;;;;;10.00;9.20;;;;;;;7.11;100.00;97203.60;109530;1251;72127;-73
2023/11/12 02:09:24;;;;;;;10.80;9.80;;;;;;;7.12;100.00;97200.10;109613;1251;60553;-71
2023/11/12 02:11:50;;;;;;;10.30;9.30;;;;;;;7.10;100.00;97197.66;109660;1250;60381;-72
2023/11/12 02:14:20;;;;;;;10.80;9.90;;;;;;;7.07;100.00;97194.95;109696;1251;74456;-72
2023/11/12 02:16:48;;;;;;;10.70;9.70;;;;;;;7.05;100.00;97192.02;109635;1250;67721;-72
2023/11/12 02:19:25;;;;;;;11.90;10.80;;;;;;;7.03;100.00;97190.67;109457;1251;71402;-75
2023/11/12 02:21:52;;;;;;;10.20;9.20;;;;;;;7.02;100.00;97191.72;109451;1251;60517;-73
2023/11/12 02:24:20;;;;;;;10.30;9.40;;;;;;;7.02;100.00;97191.11;109700;1250;59104;-72
2023/11/12 02:26:47;;;;;;;10.50;9.20;;;;;;;7.04;100.00;97190.43;109664;1250;73643;-71
2023/11/12 02:29:15;;;;;;;9.60;8.80;;;;;;;7.07;100.00;97190.02;109613;1250;67992;-73
2023/11/12 02:31:42;;;;;;;10.60;9.70;;;;;;;7.10;100.00;97191.89;109527;1251;72019;-72
2023/11/12 02:34:09;;;;;;;10.10;9.20;;;;;;;7.12;100.00;97193.88;109526;1251;61936;-74
2023/11/12 02:36:35;;;;;;;9.80;8.90;;;;;;;7.13;100.00;97192.46;109546;1250;60422;-74
2023/11/12 02:39:02;;;;;;;11.40;10.50;;;;;;;7.16;100.00;97189.29;109533;1251;73553;-74
2023/11/12 02:41:30;;;;;;;10.10;9.20;;;;;;;7.17;100.00;97185.99;109489;1251;66621;-73
2023/11/12 02:43:56;;;;;;;10.10;9.10;;;;;;;7.17;100.00;97186.67;109628;1250;71457;-71
2023/11/12 02:46:23;;;;;;;10.10;9.10;;;;;;;7.14;100.00;97182.98;109618;1250;58947;-71
2023/11/12 02:49:07;;;;;;;9.30;8.50;;;;;;;7.14;100.00;97186.02;109555;1251;60295;-73
2023/11/12 02:51:34;;;;;;;9.60;8.60;;;;;;;7.15;100.00;97185.91;109496;1253;73832;-73
2023/11/12 02:54:01;;;;;;;9.50;8.50;;;;;;;7.14;100.00;97187.38;109600;1250;66369;-73
2023/11/12 02:56:28;;;;;;;10.30;9.40;;;;;;;7.14;100.00;97187.63;109628;1250;72675;-70
2023/11/12 02:58:54;;;;;;;11.30;10.20;;;;;;;7.13;100.00;97186.45;109617;1250;59220;-71
2023/11/12 03:01:21;;;;;;;10.00;8.80;;;;;;;7.14;100.00;97184.81;109477;1251;59038;-72
2023/11/12 03:03:47;;;;;;;9.60;8.60;;;;;;;7.14;100.00;97183.55;109661;1250;75062;-72
2023/11/12 03:06:14;;;;;;;9.80;8.90;;;;;;;7.14;100.00;97181.16;109670;1251;67866;-74
2023/11/12 03:08:41;;;;;;;10.00;9.10;;;;;;;7.11;100.00;97183.02;109638;1251;71550;-71
2023/11/12 03:11:09;;;;;;;10.60;9.50;;;;;;;7.10;100.00;97182.66;109657;1251;59426;-70
2023/11/12 03:13:36;;;;;;;10.50;9.60;;;;;;;7.08;100.00;97180.41;109567;1251;60099;-73
2023/11/12 03:16:04;;;;;;;10.40;9.30;;;;;;;7.07;100.00;97176.80;109660;1251;74738;-74
2023/11/12 03:18:31;;;;;;;10.20;9.30;;;;;;;7.05;100.00;97177.95;109616;1250;66399;-72
2023/11/12 03:20:57;;;;;;;10.60;9.50;;;;;;;7.04;100.00;97175.58;109634;1250;72682;-75
2023/11/12 03:23:24;;;;;;;10.20;9.30;;;;;;;7.04;100.00;97172.69;109603;1250;58999;-74
2023/11/12 03:25:50;;;;;;;10.20;9.10;;;;;;;7.05;100.00;97174.89;109559;1251;59004;-74
2023/11/12 03:28:17;;;;;;;10.60;9.30;;;;;;;7.03;100.00;97172.82;109553;1250;74907;-73
2023/11/12 03:30:43;;;;;;;11.90;9.20;;;;;;;7.04;100.00;97167.70;109540;1251;66697;-72
2023/11/12 03:33:10;;;;;;;11.00;9.70;;;;;;;7.04;100.00;97168.47;109622;1250;72478;-73
2023/11/12 03:35:37;;;;;;;10.50;9.60;;;;;;;7.06;100.00;97167.41;109597;1251;59231;-73
2023/11/12 03:38:05;;;;;;;11.30;10.20;;;;;;;7.07;100.00;97170.61;109682;1251;58903;-72
2023/11/12 03:40:31;;;;;;;10.40;9.40;;;;;;;7.07;100.00;97169.21;109651;1251;74427;-74
2023/11/12 03:42:59;;;;;;;11.00;9.90;;;;;;;7.07;100.00;97173.18;109625;1251;66623;-74
2023/11/12 03:45:25;;;;;;;11.30;10.20;;;;;;;7.07;100.00;97175.45;109645;1251;72443;-74
2023/11/12 03:47:52;;;;;;;11.60;10.50;;;;;;;7.07;100.00;97176.23;109561;1251;60470;-75
2023/11/12 03:50:18;;;;;;;11.70;10.60;;;;;;;7.06;100.00;97178.35;109661;1250;60732;-75
2023/11/12 03:52:45;;;;;;;11.60;10.50;;;;;;;7.05;100.00;97174.19;109671;1250;59014;-73
2023/11/12 03:55:12;;;;;;;11.80;10.60;;;;;;;7.05;100.00;97176.84;109559;1250;66510;-72
2023/11/12 03:57:39;;;;;;;12.00;10.80;;;;;;;7.05;100.00;97175.05;109667;1250;72429;-75
2023/11/12 04:00:07;;;;;;;12.60;11.40;;;;;;;7.06;100.00;97177.73;109661;1250;59680;-74
2023/11/12 04:02:37;;;;;;;11.80;10.70;;;;;;;7.07;100.00;97183.22;109666;1251;58845;-74
2023/11/12 04:05:05;;;;;;;12.80;11.50;;;;;;;7.08;100.00;97179.65;109625;1250;74433;-74
2023/11/12 04:07:32;;;;;;;13.00;11.60;;;;;;;7.07;100.00;97178.86;109641;1250;66820;-73
2023/11/12 04:09:58;;;;;;;13.10;11.90;;;;;;;7.05;100.00;97179.28;109633;1250;71254;-71
2023/11/12 04:12:25;;;;;;;12.50;11.20;;;;;;;7.03;100.00;97182.42;109602;1250;60921;-73
2023/11/12 04:14:52;;;;;;;12.20;11.00;;;;;;;7.01;100.00;97185.27;109671;1251;59952;-72
2023/11/12 04:17:18;;;;;;;13.80;11.80;;;;;;;7.00;100.00;97187.34;109711;1250;75450;-73
2023/11/12 04:19:44;;;;;;;14.80;12.00;;;;;;;7.00;100.00;97190.75;109608;1250;61825;-73
2023/11/12 04:22:11;;;;;;;13.90;12.20;;;;;;;6.98;100.00;97192.02;109663;1250;59043;-75
2023/11/12 04:24:38;;;;;;;16.50;13.00;;;;;;;6.95;100.00;97195.42;109585;1250;60385;-73
2023/11/12 04:27:06;;;;;;;13.90;12.10;;;;;;;6.94;100.00;97195.25;109594;1251;60211;-72
2023/11/12 04:29:33;;;;;;;14.70;13.20;;;;;;;6.94;100.00;97193.91;109609;1250;74432;-75
2023/11/12 04:32:00;;;;;;;15.10;13.50;;;;;;;6.94;100.00;97195.25;109606;1250;59036;-75
2023/11/12 04:34:27;;;;;;;13.60;11.70;;;;;;;6.93;100.00;97192.77;109580;1251;72727;-74
2023/11/12 04:36:56;;;;;;;14.20;12.30;;;;;;;6.92;100.00;97195.30;109498;1251;59548;-73
2023/11/12 04:39:22;;;;;;;13.70;12.40;;;;;;;6.92;100.00;97201.35;109569;1251;59363;-74
2023/11/12 04:41:49;;;;;;;13.70;12.20;;;;;;;6.89;100.00;97202.95;109671;1250;73513;-72
2023/11/12 04:44:16;;;;;;;14.40;12.90;;;;;;;6.87;100.00;97202.70;109656;1250;58997;-72
2023/11/12 04:46:43;;;;;;;13.70;12.30;;;;;;;6.84;100.00;97200.24;109553;1251;72686;-73
2023/11/12 04:49:12;;;;;;;15.20;13.40;;;;;;;6.83;100.00;97202.36;109540;1251;61845;-71
2023/11/12 04:51:38;;;;;;;14.10;12.60;;;;;;;6.80;100.00;97205.32;109645;1251;59006;-74
2023/11/12 04:54:05;;;;;;;16.10;13.70;;;;;;;6.79;100.00;97204.83;109610;1251;74585;-71
2023/11/12 04:56:31;;;;;;;22.60;15.20;;;;;;;6.77;100.00;97208.06;109630;1250;67886;-73
2023/11/12 04:58:58;;;;;;;15.50;13.60;;;;;;;6.75;100.00;97210.04;109622;1251;59021;-74
2023/11/12 05:01:25;;;;;;;17.70;13.40;;;;;;;6.75;100.00;97214.56;109642;1251;59798;-74
2023/11/12 05:03:51;;;;;;;15.60;13.20;;;;;;;6.75;100.00;97214.64;109643;1251;60068;-72
2023/11/12 05:06:18;;;;;;;17.40;13.80;;;;;;;6.77;100.00;97219.72;109627;1250;74670;-70
2023/11/12 05:08:44;;;;;;;15.80;13.70;;;;;;;6.78;100.00;97225.52;109668;1250;67845;-72
2023/11/12 05:11:11;;;;;;;17.80;14.40;;;;;;;6.79;100.00;97228.91;109653;1250;58922;-73
2023/11/12 05:13:37;;;;;;;17.60;14.60;;;;;;;6.80;100.00;97229.15;109628;1250;58971;-70
2023/11/12 05:16:04;;;;;;;19.90;15.10;;;;;;;6.81;100.00;97232.52;109682;1251;58993;-74
2023/11/12 05:18:31;;;;;;;20.00;16.30;;;;;;;6.80;100.00;97233.55;109641;1251;73379;-75
2023/11/12 05:20:58;;;;;;;16.40;14.60;;;;;;;6.80;100.00;97235.98;109640;1251;66184;-73
2023/11/12 05:23:24;;;;;;;19.30;14.60;;;;;;;6.78;100.00;97240.80;109687;1251;71441;-72
2023/11/12 05:25:52;;;;;;;17.70;13.70;;;;;;;6.77;100.00;97242.58;109654;1251;61755;-72
2023/11/12 05:28:19;;;;;;;15.50;13.80;;;;;;;6.76;100.00;97243.78;109602;1251;60430;-70
2023/11/12 05:30:45;;;;;;;16.80;14.00;;;;;;;6.75;100.00;97245.98;109554;1250;58986;-71
2023/11/12 05:33:12;;;;;;;18.20;14.40;;;;;;;6.76;100.00;97244.95;109525;1254;68017;-71
2023/11/12 05:35:39;;;;;;;14.40;12.90;;;;;;;6.77;100.00;97248.34;109520;1251;72825;-73
2023/11/12 05:38:05;;;;;;;16.90;13.50;;;;;;;6.78;100.00;97250.50;109503;1250;58870;-71
2023/11/12 05:40:32;;;;;;;16.50;13.10;;;;;;;6.80;100.00;97250.73;109497;1250;59269;-72
2023/11/12 05:42:58;;;;;;;14.50;13.00;;;;;;;6.82;100.00;97253.88;109465;1250;58912;-70
2023/11/12 05:45:25;;;;;;;16.50;14.30;;;;;;;6.81;100.00;97262.86;109553;1250;67721;-71
2023/11/12 05:47:51;;;;;;;16.60;14.30;;;;;;;6.78;100.00;97260.21;109497;1251;71198;-72
2023/11/12 05:50:18;;;;;;;18.60;14.00;;;;;;;6.75;100.00;97262.03;109481;1251;61821;-72
2023/11/12 05:52:44;;;;;;;16.40;14.70;;;;;;;6.72;100.00;97267.14;109512;1250;61178;-72
2023/11/12 05:55:11;;;;;;;16.30;13.60;;;;;;;6.71;100.00;97271.70;109532;1251;74392;-72
2023/11/12 05:57:38;;;;;;;15.20;13.40;;;;;;;6.71;100.00;97275.55;109487;1251;67687;-71
2023/11/12 06:00:09;;;;;;;15.20;13.60;;;;;;;6.71;100.00;97280.20;109501;1250;71446;-72
2023/11/12 06:02:39;;;;;;;17.10;14.90;;;;;;;6.74;100.00;97283.63;109431;1251;60670;-71
2023/11/12 06:05:06;;;;;;;17.00;13.30;;;;;;;6.78;100.00;97286.88;109563;1251;60178;-71
2023/11/12 06:07:33;;;;;;;18.00;13.90;;;;;;;6.78;100.00;97290.83;109513;1251;74530;-74
2023/11/12 06:10:00;;;;;;;16.40;13.50;;;;;;;6.80;100.00;97289.36;109503;1251;67637;-72
2023/11/12 06:12:26;;;;;;;15.90;13.30;;;;;;;6.80;100.00;97291.16;109512;1251;72535;-72
2023/11/12 06:14:53;;;;;;;16.20;14.50;;;;;;;6.81;100.00;97291.59;109557;1251;59018;-72
2023/11/12 06:17:19;;;;;;;16.40;14.60;;;;;;;6.80;100.00;97297.09;109668;1251;58890;-71
2023/11/12 06:19:47;;;;;;;15.90;13.80;;;;;;;6.79;100.00;97299.90;109635;1251;74466;-73
2023/11/12 06:22:15;;;;;;;17.80;14.70;;;;;;;6.79;100.00;97297.98;109632;1250;66896;-73
2023/11/12 06:24:42;;;;;;;16.00;14.30;;;;;;;6.79;100.00;97298.67;109536;1251;71834;-72
2023/11/12 06:27:08;;;;;;;16.20;14.20;;;;;;;6.80;100.00;97301.84;109620;1251;60700;-73
2023/11/12 06:29:35;;;;;;;19.50;15.20;;;;;;;6.80;100.00;97303.27;109598;1251;60563;-73
2023/11/12 06:32:02;;;;;;;15.70;14.10;;;;;;;6.82;100.00;97305.02;109674;1251;72936;-74
2023/11/12 06:34:30;;;;;;;16.40;13.70;;;;;;;6.83;100.00;97300.11;109555;1251;66665;-74
2023/11/12 06:36:57;;;;;;;16.90;12.90;;;;;;;6.85;100.00;97301.13;109504;1250;72554;-73
2023/11/12 06:39:23;;;;;;;15.40;13.80;;;;;;;6.86;100.00;97302.08;109547;1251;60183;-73
2023/11/12 06:41:50;;;;;;;14.50;13.00;;;;;;;6.87;100.00;97304.48;109574;1251;60156;-71
2023/11/12 06:44:17;;;;;;;15.10;13.60;;;;;;;6.85;100.00;97303.58;109580;1251;74314;-70
2023/11/12 06:46:46;;;;;;;14.50;12.80;;;;;;;6.85;100.00;97306.50;109559;1251;66663;-71
2023/11/12 06:49:13;;;;;;;16.90;13.20;;;;;;;6.86;100.00;97306.34;109495;1251;70603;-72
2023/11/12 06:51:39;;;;;;;14.90;13.40;;;;;;;6.84;100.00;97307.67;109441;1256;61265;-69
2023/11/12 06:54:08;;;;;;;13.40;12.10;;;;;;;6.83;100.00;97305.14;109454;1250;59124;-72
2023/11/12 06:56:35;;;;;;;14.30;12.80;;;;;;;6.83;100.00;97307.98;109622;1250;74541;-72
2023/11/12 06:59:02;;;;;;;15.00;13.50;;;;;;;6.85;100.00;97306.33;109651;1251;67775;-73
2023/11/12 07:01:29;;;;;;;13.40;12.00;;;;;;;6.87;100.00;97307.85;109680;1251;71452;-72
2023/11/12 07:03:56;;;;;;;15.80;12.70;;;;;;;6.89;100.00;97309.02;109666;1251;58971;-71
2023/11/12 07:06:23;;;;;;;15.20;13.60;;;;;;;6.90;100.00;97314.04;109641;1250;58856;-70
2023/11/12 07:08:50;;;;;;;16.00;14.40;;;;;;;6.88;100.00;97317.45;109574;1251;73344;-71
2023/11/12 07:11:16;;;;;;;15.00;13.40;;;;;;;6.85;100.00;97323.23;109658;1251;67755;-74
2023/11/12 07:13:43;;;;;;;15.00;13.50;;;;;;;6.83;100.00;97323.85;109614;1250;72953;-69
2023/11/12 07:16:16;;;;;;;15.00;13.40;;;;;;;6.82;100.00;97325.02;109571;1250;61809;-72
2023/11/12 07:18:44;;;;;;;16.50;13.30;;;;;;;6.82;100.00;97325.64;109602;1250;58902;-70
2023/11/12 07:21:27;;;;;;;15.90;13.90;;;;;;;6.80;100.00;97326.84;109707;1251;73094;-67
2023/11/12 07:23:54;;;;;;;15.20;13.20;;;;;;;6.82;100.00;97326.00;109638;1251;66333;-73
2023/11/12 07:26:21;;;;;;;14.30;12.80;;;;;;;6.82;100.00;97326.13;109679;1251;72702;-72
2023/11/12 07:28:47;;;;;;;16.50;12.80;;;;;;;6.83;100.00;97330.39;109662;1251;59284;-71
2023/11/12 07:31:14;;;;;;;18.40;13.50;;;;;;;6.84;100.00;97329.75;109624;1251;59159;-71
2023/11/12 07:33:41;;;;;;;15.60;13.70;;;;;;;6.85;100.00;97329.96;109647;1251;74893;-72
2023/11/12 07:36:07;;;;;;;16.90;13.80;;;;;;;6.83;100.00;97329.99;109657;1250;67839;-76
2023/11/12 07:38:35;;;;;;;17.50;12.90;;;;;;;6.81;100.00;97332.05;109582;1251;72703;-74
2023/11/12 07:41:03;;;;;;;19.90;14.30;;;;;;;6.79;100.00;97333.88;109661;1253;60801;-74
2023/11/12 07:43:29;;;;;;;15.30;13.60;;;;;;;6.79;100.00;97333.64;109543;1250;59164;-73
2023/11/12 07:45:56;;;;;;;15.80;14.20;;;;;;;6.79;100.00;97335.46;109611;1251;73191;-78
2023/11/12 07:48:23;;;;;;;20.10;13.70;;;;;;;6.82;100.00;97338.09;109685;1251;67886;-72
2023/11/12 07:50:49;;;;;;;14.70;12.90;;;;;;;6.83;100.00;97331.61;109621;1251;72442;-72
2023/11/12 07:53:16;;;;;;;14.70;13.20;;;;;;;6.85;100.00;97336.39;109606;1251;60717;-72
2023/11/12 07:55:43;;;;;;;14.50;13.10;;;;;;;6.87;100.00;97339.16;109683;1250;59061;-73
2023/11/12 07:58:09;;;;;;;15.20;13.50;;;;;;;6.88;100.00;97343.30;109637;1251;59438;-71
2023/11/12 08:00:36;;;;;;;13.50;12.20;;;;;;;6.90;100.00;97345.79;109625;1251;58999;-72
2023/11/12 08:03:03;;;;;;;13.20;11.80;;;;;;;6.91;100.00;97352.83;109549;1251;72516;-72
2023/11/12 08:05:30;;;;;;;14.50;12.90;;;;;;;6.92;100.00;97353.73;109612;1251;60092;-71
2023/11/12 08:07:56;;;;;;;13.80;12.30;;;;;;;6.92;100.00;97354.98;109622;1251;60322;-71
2023/11/12 08:10:23;;;;;;;15.50;11.40;;;;;;;6.92;100.00;97356.41;109664;1250;72566;-72
2023/11/12 08:12:49;;;;;;;13.70;10.90;;;;;;;6.93;100.00;97361.70;109594;1251;67228;-71
2023/11/12 08:15:16;;;;;;;15.10;11.00;;;;;;;6.94;100.00;97363.85;109571;1251;59100;-73
2023/11/12 08:17:43;;;;;;;13.00;10.10;;;;;;;6.95;100.00;97369.52;109673;1250;60450;-71
2023/11/12 08:20:10;;;;;;;13.20;11.10;;;;;;;6.96;100.00;97367.61;109635;1251;59020;-71
2023/11/12 08:22:37;;;;;;;12.80;11.40;;;;;;;6.96;100.00;97374.52;109660;1251;74423;-73
2023/11/12 08:25:05;;;;;;;13.10;10.70;;;;;;;6.96;100.00;97378.59;109667;1251;66789;-71
2023/11/12 08:27:31;;;;;;;14.20;11.00;;;;;;;6.94;100.00;97381.27;109593;1250;71470;-73
2023/11/12 08:29:58;;;;;;;12.70;10.90;;;;;;;6.94;100.00;97383.34;109550;1251;60551;-72
2023/11/12 08:32:25;;;;;;;12.60;11.30;;;;;;;6.93;100.00;97387.40;109628;1250;60380;-73
2023/11/12 08:34:52;;;;;;;12.90;11.60;;;;;;;6.93;100.00;97391.27;109693;1251;73624;-71
2023/11/12 08:37:18;;;;;;;15.40;11.40;;;;;;;6.94;100.00;97394.73;109606;1251;66845;-71
2023/11/12 08:39:45;;;;;;;18.80;10.70;;;;;;;6.94;100.00;97397.48;109684;1251;72707;-72
2023/11/12 08:42:11;;;;;;;13.90;11.70;;;;;;;6.96;100.00;97400.14;109617;1253;61723;-74
2023/11/12 08:44:38;;;;;;;12.10;10.30;;;;;;;6.97;100.00;97402.91;109631;1251;58893;-73
2023/11/12 08:47:05;;;;;;;12.60;11.40;;;;;;;6.98;100.00;97401.23;109632;1251;74601;-72
2023/11/12 08:49:32;;;;;;;13.90;12.50;;;;;;;6.99;100.00;97402.88;109590;1251;66816;-73
2023/11/12 08:51:59;;;;;;;13.40;12.00;;;;;;;7.00;100.00;97404.59;109621;1251;72030;-70
2023/11/12 08:54:25;;;;;;;12.00;10.60;;;;;;;6.98;100.00;97406.22;109609;1250;60536;-73
2023/11/12 08:56:53;;;;;;;12.20;10.90;;;;;;;6.97;100.00;97405.02;109700;1251;58989;-69
2023/11/12 08:59:19;;;;;;;12.80;11.20;;;;;;;6.99;100.00;97405.33;109655;1250;74882;-72
2023/11/12 09:01:46;;;;;;;16.20;11.20;;;;;;;7.00;100.00;97405.94;109610;1251;67893;-70
2023/11/12 09:04:12;;;;;;;12.40;11.20;;;;;;;6.97;100.00;97412.80;109602;1251;59037;-69
2023/11/12 09:06:39;;;;;;;12.80;11.30;;;;;;;6.98;100.00;97413.01;109444;1250;60470;-72
2023/11/12 09:09:08;;;;;;;12.40;11.10;;;;;;;7.02;100.00;97418.52;109552;1251;59207;-70
2023/11/12 09:11:36;;;;;;;14.10;12.40;;;;;;;7.04;100.00;97421.45;109582;1251;73362;-70
2023/11/12 09:14:05;;;;;;;13.80;12.20;;;;;;;7.05;100.00;97420.31;109612;1251;67833;-69
2023/11/12 09:16:32;;;;;;;13.90;12.50;;;;;;;7.04;100.00;97422.19;109572;1250;71354;-69
2023/11/12 09:18:59;;;;;;;13.50;12.20;;;;;;;7.02;100.00;97421.86;109601;1251;60782;-70
2023/11/12 09:21:30;;;;;;;13.10;11.70;;;;;;;7.01;100.00;97420.96;109594;1251;60090;-73
2023/11/12 09:23:57;;;;;;;14.80;12.60;;;;;;;7.00;100.00;97425.70;109624;1251;74916;-71
2023/11/12 09:26:24;;;;;;;13.70;11.70;;;;;;;7.01;100.00;97432.30;109609;1251;68028;-71
2023/11/12 09:28:51;;;;;;;13.50;11.10;;;;;;;7.01;100.00;97424.09;109492;1251;72492;-74
2023/11/12 09:31:19;;;;;;;12.40;11.20;;;;;;;7.03;100.00;97431.25;109517;1250;60916;-73
2023/11/12 09:33:46;;;;;;;13.20;11.80;;;;;;;7.04;100.00;97433.36;109424;1250;60280;-69
2023/11/12 09:36:13;;;;;;;14.80;12.20;;;;;;;7.04;100.00;97434.75;109458;1251;74329;-75
2023/11/12 09:38:40;;;;;;;12.90;11.60;;;;;;;7.03;100.00;97440.90;109574;1251;66607;-73
2023/11/12 09:41:07;;;;;;;12.80;11.50;;;;;;;7.04;100.00;97441.75;109525;1251;71308;-72
2023/11/12 09:43:34;;;;;;;11.50;10.30;;;;;;;7.04;100.00;97443.82;109415;1251;60535;-71
2023/11/12 09:46:00;;;;;;;13.50;12.10;;;;;;;7.06;100.00;97444.12;109601;1254;60119;-69
2023/11/12 09:48:42;;;;;;;11.80;10.60;;;;;;;7.07;100.00;97443.23;109412;1251;74710;-72
2023/11/12 09:51:12;;;;;;;11.30;10.20;;;;;;;7.08;100.00;97449.63;109649;1251;66456;-71
2023/11/12 09:53:39;;;;;;;12.10;10.90;;;;;;;7.08;100.00;97448.36;109516;1251;135497;-73
2023/11/12 09:56:09;;;;;;;11.30;10.20;;;;;;;7.08;100.00;97454.62;109513;1251;59099;-71
2023/11/12 09:58:37;;;;;;;13.30;11.60;;;;;;;7.09;100.00;97454.95;109520;1251;60653;-72
2023/11/12 10:01:11;;;;;;;14.00;11.40;;;;;;;7.10;100.00;97455.55;109622;1250;74933;-69
2023/11/12 10:03:38;;;;;;;14.60;12.90;;;;;;;7.11;100.00;97456.82;109574;1250;67890;-71
2023/11/12 10:06:06;;;;;;;14.10;12.60;;;;;;;7.13;100.00;97463.30;109584;1251;72525;-76
2023/11/12 10:08:34;;;;;;;16.90;14.00;;;;;;;7.14;100.00;97465.67;109606;1251;60749;-67
2023/11/12 10:11:18;;;;;;;14.70;12.90;;;;;;;7.15;100.00;97466.23;109591;1251;60218;-67
2023/11/12 10:13:45;;;;;;;13.10;11.60;;;;;;;7.17;100.00;97467.31;109599;1254;74698;-67
2023/11/12 10:16:25;;;;;;;12.30;11.20;;;;;;;7.20;100.00;97470.54;109544;1251;66781;-72
2023/11/12 10:18:52;;;;;;;13.10;11.70;;;;;;;7.21;100.00;97472.59;109606;1251;73778;-73
2023/11/12 10:21:19;;;;;;;13.40;12.00;;;;;;;7.21;100.00;97472.62;109582;1251;60488;-74
2023/11/12 10:23:46;;;;;;;13.60;12.00;;;;;;;7.22;100.00;97473.19;109509;1251;59315;-73
2023/11/12 10:26:14;;;;;;;12.40;11.20;;;;;;;7.24;100.00;97477.68;109353;1251;73472;-73
2023/11/12 10:28:40;;;;;;;12.20;10.90;;;;;;;7.25;100.00;97479.63;109598;1251;67626;-72
2023/11/12 10:31:11;;;;;;;14.50;12.40;;;;;;;7.29;100.00;97481.80;109535;1251;71503;-70
2023/11/12 10:33:38;;;;;;;12.70;11.30;;;;;;;7.32;100.00;97480.14;109611;1251;60804;-72
2023/11/12 10:36:09;;;;;;;11.80;10.50;;;;;;;7.35;100.00;97484.39;109680;1250;59023;-72
2023/11/12 10:38:49;;;;;;;12.10;10.70;;;;;;;7.37;100.00;97483.05;109645;1251;74529;-70
2023/11/12 10:41:16;;;;;;;11.60;10.50;;;;;;;7.37;100.00;97485.75;109595;1251;66582;-69
2023/11/12 10:43:56;;;;;;;12.70;11.40;;;;;;;7.38;100.00;97483.08;109598;1251;72600;-69
2023/11/12 10:46:23;;;;;;;12.30;10.40;;;;;;;7.38;100.00;97488.70;109510;1251;62278;-71
2023/11/12 10:48:51;;;;;;;11.80;10.70;;;;;;;7.38;100.00;97491.48;109698;1251;59001;-71
2023/11/12 10:51:17;;;;;;;11.60;9.70;;;;;;;7.40;100.00;97495.96;109459;1251;74539;-71
2023/11/12 10:53:44;;;;;;;10.90;9.70;;;;;;;7.43;100.00;97496.38;109557;1250;68025;-70
2023/11/12 10:56:11;;;;;;;10.90;9.90;;;;;;;7.44;100.00;97501.15;109534;1251;72601;-70
2023/11/12 10:58:38;;;;;;;10.50;9.40;;;;;;;7.47;100.00;97503.81;109496;1253;60135;-71
2023/11/12 11:01:06;;;;;;;10.30;9.30;;;;;;;7.50;100.00;97500.77;109615;1251;61252;-70
2023/11/12 11:03:33;;;;;;;11.00;9.30;;;;;;;7.52;100.00;97505.46;109654;1251;74868;-71
2023/11/12 11:06:05;;;;;;;9.40;8.50;;;;;;;7.53;100.00;97512.95;109658;1251;67715;-73
2023/11/12 11:08:34;;;;;;;10.00;9.00;;;;;;;7.53;100.00;97518.16;109644;1251;71250;-71
2023/11/12 11:11:02;;;;;;;10.00;9.00;;;;;;;7.55;100.00;97521.17;109635;1250;60510;-72
2023/11/12 11:13:29;;;;;;;10.40;8.90;;;;;;;7.57;100.00;97525.86;109688;1251;59200;-71